Esteban Echeverria, Argentina
Current Conditions -  °F | °C
As of 3:00 PM on Thursday 29 Jan 2015 (Local Time) from SAEZ Reporting Station
Clear Clear  
Wind Chill: 75°   Ceiling: Unl
Heat Index: 75°   Visibility: 6mi
Dew Point: 52°   Wind: 12mph
Humidity: 44%   Direction: 170°S
Pressure: 30.09"   Gusts: NA
Location:  34.83°S, 58.47°W
Report Text: SAEZ 291800Z 17010KT 120V290 CAVOK 24/11 Q1019
Loading
Personal Weather Stations






























Interactive Weather Map New forecast layout! Learn more

10-Day Weather Forecast

Advertisements
Track Severe Weather on mobile